createdAt,value
2022-10-08T00:01:24.700Z,14.13
2022-10-08T00:03:54.978Z,16.27
2022-10-08T00:06:29.232Z,14.50
2022-10-08T00:09:03.392Z,15.75
2022-10-08T00:11:33.990Z,14.07
2022-10-08T00:14:03.083Z,14.57
2022-10-08T00:16:37.294Z,14.25
2022-10-08T00:19:08.581Z,15.93
2022-10-08T00:21:39.373Z,14.57
2022-10-08T00:24:09.179Z,14.32
2022-10-08T00:26:42.783Z,15.48
2022-10-08T00:29:14.598Z,13.93
2022-10-08T00:31:46.469Z,15.32
2022-10-08T00:34:17.229Z,14.00
2022-10-08T00:36:45.472Z,13.50
2022-10-08T00:39:16.517Z,14.50
2022-10-08T00:41:46.888Z,12.98
2022-10-08T00:44:45.280Z,12.27
2022-10-08T00:47:20.287Z,13.95
2022-10-08T00:49:50.962Z,16.37
2022-10-08T00:52:20.578Z,16.42
2022-10-08T00:54:51.187Z,15.65
2022-10-08T00:57:20.768Z,16.12
2022-10-08T00:59:48.565Z,17.27
2022-10-08T01:02:17.001Z,19.25
2022-10-08T01:04:45.366Z,21.35
2022-10-08T01:07:30.400Z,20.00
2022-10-08T01:10:22.001Z,21.58
2022-10-08T01:13:19.745Z,22.05
2022-10-08T01:16:03.134Z,22.55
2022-10-08T01:19:07.577Z,21.85
2022-10-08T01:21:51.813Z,21.67
2022-10-08T01:24:57.015Z,23.70
2022-10-08T01:27:30.560Z,22.90
2022-10-08T01:30:02.549Z,24.48
2022-10-08T01:32:36.080Z,21.45
2022-10-08T01:35:11.061Z,22.90
2022-10-08T01:37:41.865Z,20.90
2022-10-08T01:40:16.715Z,21.95
2022-10-08T01:42:46.183Z,22.10
2022-10-08T01:45:19.302Z,23.40
2022-10-08T01:47:50.632Z,22.48
2022-10-08T01:50:29.272Z,21.67
2022-10-08T01:53:03.652Z,20.88
2022-10-08T01:55:43.475Z,19.25
2022-10-08T01:58:17.795Z,23.50
2022-10-08T02:00:48.437Z,22.23
2022-10-08T02:03:16.518Z,22.52
2022-10-08T02:05:49.787Z,21.00
2022-10-08T02:08:17.952Z,21.85
2022-10-08T02:10:45.871Z,20.67
2022-10-08T02:13:13.878Z,21.85
2022-10-08T02:16:03.809Z,22.30
2022-10-08T02:19:08.700Z,20.58
2022-10-08T02:21:40.873Z,20.40
2022-10-08T02:24:41.311Z,20.20
2022-10-08T02:27:12.362Z,20.75
2022-10-08T02:30:05.852Z,21.80
2022-10-08T02:32:45.684Z,20.80
2022-10-08T02:35:23.878Z,22.45
2022-10-08T02:38:00.909Z,20.73
2022-10-08T02:40:31.570Z,23.05
2022-10-08T02:43:06.946Z,22.23
2022-10-08T02:45:43.173Z,23.55
2022-10-08T02:48:19.895Z,24.75
2022-10-08T02:50:51.210Z,24.37
2022-10-08T02:53:19.512Z,23.02
2022-10-08T02:56:05.690Z,21.73
2022-10-08T02:58:33.848Z,21.52
2022-10-08T03:01:09.682Z,22.85
2022-10-08T03:03:45.327Z,21.50
2022-10-08T03:06:14.493Z,25.05
2022-10-08T03:08:47.466Z,23.65
2022-10-08T03:11:15.328Z,22.15
2022-10-08T03:13:49.426Z,23.42
2022-10-08T03:16:22.360Z,23.17
2022-10-08T03:18:53.194Z,23.23
2022-10-08T03:21:21.541Z,22.70
2022-10-08T03:23:49.242Z,22.55
2022-10-08T03:26:19.648Z,21.87
2022-10-08T03:28:47.376Z,22.55
2022-10-08T03:31:15.389Z,22.80
2022-10-08T03:33:43.080Z,23.90
2022-10-08T03:36:10.814Z,21.33
2022-10-08T03:38:38.496Z,24.67
2022-10-08T03:41:06.198Z,22.70
2022-10-08T03:43:34.889Z,21.95
2022-10-08T03:46:03.430Z,22.10
2022-10-08T03:48:31.142Z,21.55
2022-10-08T03:51:05.191Z,21.27
2022-10-08T03:53:38.082Z,20.42
2022-10-08T03:56:28.402Z,21.45
2022-10-08T03:59:01.263Z,24.30
2022-10-08T04:01:30.157Z,21.00
2022-10-08T04:03:57.754Z,22.37
2022-10-08T04:06:25.491Z,22.05
2022-10-08T04:08:53.133Z,21.42
2022-10-08T04:11:21.341Z,22.62
2022-10-08T04:13:48.978Z,21.25
2022-10-08T04:16:18.542Z,22.15
2022-10-08T04:18:46.999Z,21.25
2022-10-08T04:21:17.570Z,20.55
2022-10-08T04:23:46.054Z,22.58
2022-10-08T04:26:15.543Z,21.67
2022-10-08T04:28:47.340Z,22.23
2022-10-08T04:31:19.907Z,22.30
2022-10-08T04:33:48.282Z,22.00
2022-10-08T04:36:18.207Z,23.73
2022-10-08T04:38:46.892Z,22.90
2022-10-08T04:41:15.835Z,24.45
2022-10-08T04:43:44.675Z,23.45
2022-10-08T04:46:15.514Z,22.87
2022-10-08T04:48:56.687Z,24.25
2022-10-08T04:51:26.893Z,23.90
2022-10-08T04:53:55.986Z,24.23
2022-10-08T04:56:26.784Z,25.08
2022-10-08T04:58:56.217Z,22.70
2022-10-08T05:01:24.499Z,23.00
2022-10-08T05:03:56.225Z,22.50
2022-10-08T05:06:27.117Z,24.92
2022-10-08T05:08:55.507Z,25.08
2022-10-08T05:11:28.078Z,26.27
2022-10-08T05:13:58.184Z,25.73
2022-10-08T05:16:27.196Z,28.25
2022-10-08T05:18:54.954Z,26.25
2022-10-08T05:21:28.969Z,27.83
2022-10-08T05:24:03.416Z,26.08
2022-10-08T05:26:57.512Z,29.58
2022-10-08T05:29:21.941Z,27.15
2022-10-08T05:31:49.559Z,27.70
2022-10-08T05:34:17.514Z,26.00
2022-10-08T05:36:45.650Z,26.15
2022-10-08T05:39:13.338Z,26.17
2022-10-08T05:41:41.732Z,27.55
2022-10-08T05:44:11.746Z,28.23
2022-10-08T05:46:40.424Z,27.45
2022-10-08T05:49:09.808Z,28.75
2022-10-08T05:51:39.521Z,28.42
2022-10-08T05:54:07.148Z,29.90
2022-10-08T05:56:34.848Z,30.25
2022-10-08T05:59:02.489Z,29.15
2022-10-08T06:01:32.662Z,30.88
2022-10-08T06:04:08.679Z,30.80
2022-10-08T06:06:38.232Z,29.95
2022-10-08T06:09:07.949Z,29.87
2022-10-08T06:11:37.612Z,30.05
2022-10-08T06:14:08.184Z,28.77
2022-10-08T06:16:36.604Z,28.85
2022-10-08T06:19:05.985Z,29.23
2022-10-08T06:21:34.753Z,28.83
2022-10-08T06:24:05.090Z,27.40
2022-10-08T06:26:36.477Z,26.90
2022-10-08T06:29:06.630Z,27.45
2022-10-08T06:31:37.875Z,26.23
2022-10-08T06:34:06.340Z,25.00
2022-10-08T06:36:35.760Z,26.40
2022-10-08T06:39:07.456Z,26.67
2022-10-08T06:41:36.018Z,26.87
2022-10-08T06:44:05.526Z,23.30
2022-10-08T06:46:33.933Z,23.58
2022-10-08T06:49:02.401Z,23.90
2022-10-08T06:51:31.210Z,24.27
2022-10-08T06:54:05.993Z,24.50
2022-10-08T06:56:36.698Z,25.40
2022-10-08T06:59:06.015Z,23.20
2022-10-08T07:01:34.476Z,25.02
2022-10-08T07:04:03.234Z,23.67
2022-10-08T07:06:31.126Z,24.52
2022-10-08T07:09:01.282Z,26.52
2022-10-08T07:11:29.989Z,23.40
2022-10-08T07:13:58.803Z,24.40
2022-10-08T07:16:28.105Z,24.05
2022-10-08T07:18:58.227Z,24.33
2022-10-08T07:21:26.634Z,23.80
2022-10-08T07:23:54.308Z,25.65
2022-10-08T07:26:24.255Z,25.02
2022-10-08T07:28:56.378Z,25.62
2022-10-08T07:31:29.064Z,27.55
2022-10-08T07:33:57.701Z,27.17
2022-10-08T07:36:26.790Z,28.65
2022-10-08T07:38:59.178Z,26.73
2022-10-08T07:41:27.809Z,27.60
2022-10-08T07:43:59.487Z,27.30
2022-10-08T07:46:32.833Z,30.25
2022-10-08T07:49:02.591Z,27.60
2022-10-08T07:51:32.651Z,29.10
2022-10-08T07:54:02.796Z,26.27
2022-10-08T07:56:32.930Z,27.08
2022-10-08T07:59:01.855Z,27.25
2022-10-08T08:01:31.104Z,25.88
2022-10-08T08:04:03.142Z,26.70
2022-10-08T08:06:32.876Z,25.37
2022-10-08T08:09:02.003Z,25.58
2022-10-08T08:11:32.536Z,24.52
2022-10-08T08:14:00.212Z,26.48
2022-10-08T08:16:30.470Z,26.25
2022-10-08T08:19:00.705Z,25.08
2022-10-08T08:21:33.880Z,26.60
2022-10-08T08:24:16.299Z,23.27
2022-10-08T08:26:44.738Z,25.02
2022-10-08T08:29:15.287Z,26.30
2022-10-08T08:31:48.193Z,26.45
2022-10-08T08:34:21.734Z,25.52
2022-10-08T08:36:52.029Z,25.20
2022-10-08T08:39:25.648Z,26.58
2022-10-08T08:41:59.082Z,26.05
2022-10-08T08:44:39.463Z,26.05
2022-10-08T08:47:15.159Z,24.12
2022-10-08T08:49:46.588Z,25.60
2022-10-08T08:52:17.325Z,27.02
2022-10-08T08:54:50.422Z,24.73
2022-10-08T08:57:42.690Z,25.75
2022-10-08T09:00:19.627Z,24.90
2022-10-08T09:03:07.542Z,26.10
2022-10-08T09:05:40.844Z,23.75
2022-10-08T09:08:22.228Z,23.38
2022-10-08T09:10:56.276Z,23.48
2022-10-08T09:13:49.012Z,24.58
2022-10-08T09:16:18.112Z,18.30
2022-10-08T09:18:51.475Z,25.75
2022-10-08T09:21:20.740Z,22.77
2022-10-08T09:23:48.958Z,20.10
2022-10-08T09:26:23.345Z,21.15
2022-10-08T09:28:56.733Z,25.50
2022-10-08T09:31:37.816Z,21.75
2022-10-08T09:34:11.467Z,21.50
2022-10-08T09:36:45.140Z,25.05
2022-10-08T09:39:31.494Z,25.12
2022-10-08T09:42:08.215Z,23.92
2022-10-08T09:44:50.431Z,24.77
2022-10-08T09:47:23.232Z,25.08
2022-10-08T09:50:03.231Z,17.77
2022-10-08T09:52:31.024Z,24.95
2022-10-08T09:55:11.947Z,24.80
2022-10-08T09:57:46.344Z,24.10
2022-10-08T10:00:27.847Z,24.17
2022-10-08T10:02:57.605Z,22.52
2022-10-08T10:05:31.148Z,21.33
2022-10-08T10:07:59.114Z,18.70
2022-10-08T10:10:43.140Z,23.20
2022-10-08T10:13:10.682Z,22.42
2022-10-08T10:16:05.531Z,23.02
2022-10-08T10:19:05.755Z,20.02
2022-10-08T10:21:47.566Z,23.95
2022-10-08T10:24:23.493Z,22.65
2022-10-08T10:26:54.879Z,17.55
2022-10-08T10:29:25.885Z,20.88
2022-10-08T10:32:01.433Z,21.65
2022-10-08T10:34:31.756Z,20.02
2022-10-08T10:37:03.508Z,17.02
2022-10-08T10:39:40.078Z,21.40
2022-10-08T10:42:37.547Z,22.00
2022-10-08T10:45:23.613Z,21.05
2022-10-08T10:47:52.221Z,22.13
2022-10-08T10:50:53.374Z,21.45
2022-10-08T10:53:34.469Z,20.85
2022-10-08T10:56:19.356Z,21.20
2022-10-08T10:59:28.715Z,22.08
2022-10-08T11:02:24.233Z,21.77
2022-10-08T11:05:33.914Z,20.40
2022-10-08T11:08:31.445Z,19.98
2022-10-08T11:11:17.690Z,21.17
2022-10-08T11:14:22.106Z,20.25
2022-10-08T11:16:58.575Z,18.92
2022-10-08T11:19:44.578Z,21.05
2022-10-08T11:22:39.340Z,18.40
2022-10-08T11:25:22.241Z,19.40
2022-10-08T11:27:55.582Z,16.87
2022-10-08T11:30:48.345Z,15.75
2022-10-08T11:33:18.291Z,14.70
2022-10-08T11:36:03.019Z,14.32
2022-10-08T11:38:46.206Z,13.65
2022-10-08T11:41:20.010Z,11.80
2022-10-08T11:43:55.743Z,20.20
2022-10-08T11:46:29.643Z,15.73
2022-10-08T11:48:58.744Z,17.48
2022-10-08T11:51:26.346Z,14.52
2022-10-08T11:54:17.657Z,13.40
2022-10-08T11:56:52.855Z,12.77
2022-10-08T11:59:26.422Z,14.25
2022-10-08T12:02:03.637Z,13.68
2022-10-08T12:04:38.721Z,12.60
2022-10-08T12:07:15.480Z,13.38
2022-10-08T12:10:04.524Z,12.40
2022-10-08T12:12:50.883Z,12.63
2022-10-08T12:15:24.924Z,13.75
2022-10-08T12:17:58.590Z,13.98
2022-10-08T12:20:29.666Z,15.30
2022-10-08T12:23:18.782Z,14.57
2022-10-08T12:25:46.339Z,11.25
2022-10-08T12:28:20.032Z,12.65
2022-10-08T12:30:51.922Z,12.93
2022-10-08T12:33:20.622Z,12.48
2022-10-08T12:35:57.285Z,13.32
2022-10-08T12:38:52.070Z,12.90
2022-10-08T12:41:26.535Z,12.85
2022-10-08T12:44:22.564Z,11.82
2022-10-08T12:47:18.023Z,13.88
2022-10-08T12:49:53.528Z,13.07
2022-10-08T12:52:22.963Z,12.70
2022-10-08T12:54:56.258Z,13.50
2022-10-08T12:57:28.152Z,12.82
2022-10-08T12:59:55.902Z,11.82
2022-10-08T13:02:40.521Z,13.15
2022-10-08T13:05:25.393Z,11.50
2022-10-08T13:07:53.445Z,12.10
2022-10-08T13:10:30.103Z,12.18
2022-10-08T13:13:25.064Z,12.93
2022-10-08T13:16:00.432Z,12.65
2022-10-08T13:18:31.503Z,9.68
2022-10-08T13:21:08.976Z,12.10
2022-10-08T13:23:40.392Z,12.13
2022-10-08T13:26:39.219Z,11.25
2022-10-08T13:29:25.141Z,9.57
2022-10-08T13:32:03.171Z,8.68
2022-10-08T13:34:49.284Z,8.82
2022-10-08T13:37:22.804Z,9.15
2022-10-08T13:40:12.369Z,8.23
2022-10-08T13:42:50.527Z,7.20
2022-10-08T13:45:20.678Z,7.47
2022-10-08T13:47:49.177Z,8.27
2022-10-08T13:50:17.379Z,6.53
2022-10-08T13:52:57.015Z,5.57
2022-10-08T13:55:30.672Z,5.20
2022-10-08T13:58:03.792Z,5.15
2022-10-08T14:00:35.114Z,5.22
2022-10-08T14:03:03.471Z,5.12
2022-10-08T14:05:34.003Z,4.75
2022-10-08T14:08:05.724Z,4.60
2022-10-08T14:10:34.179Z,4.75
2022-10-08T14:13:01.821Z,4.43
2022-10-08T14:15:29.502Z,5.22
2022-10-08T14:17:57.183Z,4.00
2022-10-08T14:20:25.173Z,4.62
2022-10-08T14:22:53.242Z,4.25
2022-10-08T14:25:24.935Z,4.03
2022-10-08T14:27:53.131Z,3.75
2022-10-08T14:30:20.869Z,4.60
2022-10-08T14:32:48.582Z,4.10
2022-10-08T14:35:16.348Z,4.30
2022-10-08T14:37:44.206Z,5.00
2022-10-08T14:40:17.551Z,3.85
2022-10-08T14:42:45.748Z,4.82
2022-10-08T14:45:13.866Z,3.67
2022-10-08T14:47:41.993Z,4.50
2022-10-08T14:50:10.168Z,4.82
2022-10-08T14:52:43.360Z,4.85
2022-10-08T14:55:12.490Z,5.50
2022-10-08T14:57:40.160Z,4.57
2022-10-08T15:00:08.718Z,4.25
2022-10-08T15:02:36.450Z,4.45
2022-10-08T15:05:04.266Z,4.28
2022-10-08T15:07:31.980Z,3.70
2022-10-08T15:09:59.967Z,4.30
2022-10-08T15:12:27.775Z,4.43
2022-10-08T15:14:55.434Z,3.70
2022-10-08T15:17:23.107Z,4.40
2022-10-08T15:19:50.760Z,4.00
2022-10-08T15:22:18.373Z,4.28
2022-10-08T15:24:46.031Z,5.00
2022-10-08T15:27:16.212Z,4.05
2022-10-08T15:29:47.660Z,5.37
2022-10-08T15:32:16.906Z,4.82
2022-10-08T15:34:44.602Z,4.10
2022-10-08T15:37:12.375Z,3.47
2022-10-08T15:39:39.969Z,3.62
2022-10-08T15:42:07.804Z,4.00
2022-10-08T15:44:35.562Z,3.85
2022-10-08T15:47:07.981Z,4.03
2022-10-08T15:49:41.460Z,3.78
2022-10-08T15:52:13.869Z,3.95
2022-10-08T15:54:42.885Z,3.67
2022-10-08T15:57:12.348Z,3.70
2022-10-08T15:59:40.282Z,3.97
2022-10-08T16:02:11.719Z,3.58
2022-10-08T16:04:42.086Z,4.57
2022-10-08T16:07:10.106Z,5.00
2022-10-08T16:09:37.765Z,4.28
2022-10-08T16:12:05.500Z,4.60
2022-10-08T16:14:33.375Z,4.18
2022-10-08T16:17:01.127Z,4.78
2022-10-08T16:19:29.587Z,4.80
2022-10-08T16:21:58.610Z,4.62
2022-10-08T16:24:26.610Z,5.28
2022-10-08T16:26:54.294Z,5.53
2022-10-08T16:29:22.081Z,8.38
2022-10-08T16:31:49.900Z,8.00
2022-10-08T16:34:25.616Z,9.70
2022-10-08T16:36:53.302Z,8.85
2022-10-08T16:39:22.670Z,8.43
2022-10-08T16:41:50.536Z,8.68
2022-10-08T16:44:20.309Z,7.78
2022-10-08T16:46:51.430Z,5.65
2022-10-08T16:49:26.295Z,4.85
2022-10-08T16:51:56.862Z,4.60
2022-10-08T16:54:25.202Z,5.00
2022-10-08T16:56:53.631Z,5.05
2022-10-08T16:59:24.082Z,4.55
2022-10-08T17:01:54.742Z,5.20
2022-10-08T17:04:24.625Z,4.90
2022-10-08T17:06:53.228Z,4.50
2022-10-08T17:09:21.717Z,5.03
2022-10-08T17:11:49.630Z,4.25
2022-10-08T17:14:17.297Z,5.05
2022-10-08T17:16:46.090Z,4.95
2022-10-08T17:19:14.039Z,5.05
2022-10-08T17:21:41.660Z,4.55
2022-10-08T17:24:10.970Z,5.57
2022-10-08T17:26:38.800Z,5.10
2022-10-08T17:29:09.237Z,6.00
2022-10-08T17:31:38.068Z,5.60
2022-10-08T17:34:06.703Z,5.45
2022-10-08T17:36:37.181Z,5.30
2022-10-08T17:39:07.424Z,5.87
2022-10-08T17:41:38.268Z,5.53
2022-10-08T17:44:08.131Z,5.78
2022-10-08T17:46:42.754Z,5.95
2022-10-08T17:49:10.497Z,5.80
2022-10-08T17:51:38.178Z,5.50
2022-10-08T17:54:08.594Z,5.97
2022-10-08T17:56:36.432Z,6.65
2022-10-08T17:59:04.799Z,5.65
2022-10-08T18:01:41.454Z,5.97
2022-10-08T18:04:14.387Z,6.12
2022-10-08T18:06:43.787Z,6.10
2022-10-08T18:09:14.032Z,5.85
2022-10-08T18:11:45.084Z,6.05
2022-10-08T18:14:12.908Z,5.50
2022-10-08T18:16:45.575Z,5.90
2022-10-08T18:19:15.600Z,6.07
2022-10-08T18:21:43.304Z,6.30
2022-10-08T18:24:12.034Z,6.18
2022-10-08T18:26:40.009Z,7.15
2022-10-08T18:29:10.761Z,7.50
2022-10-08T18:31:40.846Z,8.10
2022-10-08T18:34:12.728Z,7.80
2022-10-08T18:36:41.145Z,7.10
2022-10-08T18:39:14.590Z,7.40
2022-10-08T18:41:47.619Z,6.45
2022-10-08T18:44:19.251Z,6.68
2022-10-08T18:46:47.315Z,6.82
2022-10-08T18:49:17.840Z,7.25
2022-10-08T18:51:45.896Z,6.53
2022-10-08T18:54:13.715Z,6.60
2022-10-08T18:56:42.568Z,6.22
2022-10-08T18:59:14.574Z,8.48
2022-10-08T19:01:44.897Z,8.98
2022-10-08T19:04:18.403Z,6.85
2022-10-08T19:06:48.706Z,6.18
2022-10-08T19:09:17.555Z,5.80
2022-10-08T19:11:48.069Z,5.00
2022-10-08T19:14:18.657Z,6.07
2022-10-08T19:16:46.747Z,5.05
2022-10-08T19:19:20.252Z,5.05
2022-10-08T19:21:49.365Z,5.28
2022-10-08T19:24:19.935Z,4.72
2022-10-08T19:26:48.475Z,5.18
2022-10-08T19:29:25.185Z,4.10
2022-10-08T19:31:53.392Z,4.10
2022-10-08T19:34:24.238Z,4.53
2022-10-08T19:36:52.345Z,4.22
2022-10-08T19:39:23.245Z,4.35
2022-10-08T19:41:51.261Z,4.55
2022-10-08T19:44:19.515Z,4.55
2022-10-08T19:46:48.141Z,4.75
2022-10-08T19:49:16.893Z,4.97
2022-10-08T19:51:44.981Z,4.40
2022-10-08T19:54:13.370Z,3.60
2022-10-08T19:56:41.275Z,3.75
2022-10-08T19:59:10.988Z,4.50
2022-10-08T20:01:40.332Z,4.05
2022-10-08T20:04:10.129Z,3.78
2022-10-08T20:06:40.531Z,4.32
2022-10-08T20:09:12.865Z,4.55
2022-10-08T20:11:42.069Z,3.90
2022-10-08T20:14:10.115Z,3.90
2022-10-08T20:16:40.672Z,3.95
2022-10-08T20:19:15.325Z,4.90
2022-10-08T20:21:43.035Z,4.65
2022-10-08T20:24:10.828Z,4.32
2022-10-08T20:26:40.737Z,4.68
2022-10-08T20:29:11.611Z,4.50
2022-10-08T20:31:42.541Z,4.18
2022-10-08T20:34:19.286Z,4.10
2022-10-08T20:36:47.924Z,3.90
2022-10-08T20:39:17.703Z,3.30
2022-10-08T20:41:45.757Z,2.72
2022-10-08T20:44:13.830Z,3.75
2022-10-08T20:46:41.582Z,3.05
2022-10-08T20:49:11.177Z,2.85
2022-10-08T20:51:41.833Z,2.75
2022-10-08T20:54:11.975Z,3.05
2022-10-08T20:56:41.482Z,2.95
2022-10-08T20:59:10.827Z,3.12
2022-10-08T21:01:40.018Z,2.78
2022-10-08T21:04:08.423Z,3.10
2022-10-08T21:06:40.447Z,2.97
2022-10-08T21:09:08.697Z,2.72
2022-10-08T21:11:37.134Z,2.87
2022-10-08T21:14:05.920Z,2.70
2022-10-08T21:16:36.396Z,2.62
2022-10-08T21:19:06.742Z,2.60
2022-10-08T21:21:35.479Z,2.33
2022-10-08T21:24:03.157Z,2.58
2022-10-08T21:26:39.838Z,2.12
2022-10-08T21:29:10.269Z,2.05
2022-10-08T21:31:39.605Z,2.08
2022-10-08T21:34:07.829Z,2.05
2022-10-08T21:36:38.439Z,2.15
2022-10-08T21:39:07.885Z,2.10
2022-10-08T21:41:37.524Z,2.00
2022-10-08T21:44:08.156Z,2.42
2022-10-08T21:46:39.161Z,2.00
2022-10-08T21:49:13.661Z,2.12
2022-10-08T21:51:41.902Z,2.30
2022-10-08T21:54:11.836Z,1.92
2022-10-08T21:56:41.484Z,2.03
2022-10-08T21:59:11.990Z,2.35
2022-10-08T22:01:45.789Z,2.47
2022-10-08T22:04:16.709Z,2.00
2022-10-08T22:06:56.617Z,1.90
2022-10-08T22:09:27.375Z,2.10
2022-10-08T22:11:56.579Z,1.80
2022-10-08T22:14:24.806Z,1.90
2022-10-08T22:16:52.793Z,1.73
2022-10-08T22:19:20.687Z,2.17
2022-10-08T22:21:48.603Z,2.15
2022-10-08T22:24:16.477Z,2.20
2022-10-08T22:26:47.313Z,2.10
2022-10-08T22:29:15.257Z,2.42
2022-10-08T22:31:43.274Z,2.55
2022-10-08T22:34:11.816Z,2.45
2022-10-08T22:36:42.905Z,2.10
2022-10-08T22:39:11.213Z,2.50
2022-10-08T22:41:39.636Z,2.72
2022-10-08T22:44:07.303Z,2.40
2022-10-08T22:46:40.584Z,1.90
2022-10-08T22:49:11.583Z,2.30
2022-10-08T22:51:39.757Z,1.73
2022-10-08T22:54:07.904Z,1.67
2022-10-08T22:56:36.066Z,1.60
2022-10-08T22:59:03.718Z,2.05
2022-10-08T23:01:32.713Z,1.70
2022-10-08T23:04:00.453Z,1.73
2022-10-08T23:06:31.105Z,2.00
2022-10-08T23:09:01.698Z,1.87
2022-10-08T23:11:30.847Z,2.92
2022-10-08T23:14:00.167Z,2.10
2022-10-08T23:16:29.204Z,1.60
2022-10-08T23:18:59.896Z,2.17
2022-10-08T23:21:28.392Z,1.58
2022-10-08T23:23:57.404Z,1.67
2022-10-08T23:26:26.536Z,1.73
2022-10-08T23:28:56.953Z,1.75
2022-10-08T23:31:30.859Z,1.58
2022-10-08T23:33:59.553Z,1.40
2022-10-08T23:36:30.287Z,1.98
2022-10-08T23:38:58.127Z,1.80
2022-10-08T23:41:26.984Z,1.70
2022-10-08T23:43:57.452Z,1.80
2022-10-08T23:46:28.316Z,1.83
2022-10-08T23:48:56.806Z,1.70
2022-10-08T23:51:25.781Z,2.12
2022-10-08T23:53:53.760Z,1.80
2022-10-08T23:56:22.874Z,1.50
2022-10-08T23:58:50.971Z,1.90
